Main page
Satellite images 15-day forecastsClimateMarine weather Cyclones Lightning AirportsFAQ Newsletter About
Weather : Europe Africa North America South America Asia Australia-Oceania Others
Languages Contact

Pontianak, Indonesia

latitude: 00-09S, longitude: 109-24E, elevation: 3 m


METAR: WIOO 291200Z 00000KT 6000 SCT012 26/24 Q1010 NSW
short-TAF: out of date (62210 hours)
long-TAF: out of date (3756 hours)

Time: 01:03 (18:03 UTC)

Current weather observation

The report was made 6 hours and 3 minutes ago, at 12:00 UTC  
Wind calm
Temperature 26°C
Humidity 89%
Pressure 1010 hPa
Visibility 6000 m
Scattered clouds at a height of 1200 ft

Change units
The information on this site is subject to a disclaimer
Weather : Europe Africa North America South America Asia Australia-Oceania Others
Satellite images 15-day forecastsClimateMarine weather Cyclones Lightning AirportsFAQ Languages Contact Newsletter About